createdAt,value
2023-02-05T00:00:05.228Z,100.00
2023-02-05T00:02:33.267Z,100.00
2023-02-05T00:05:01.135Z,100.00
2023-02-05T00:07:28.694Z,100.00
2023-02-05T00:09:56.084Z,100.00
2023-02-05T00:12:23.637Z,100.00
2023-02-05T00:14:51.062Z,100.00
2023-02-05T00:17:18.495Z,100.00
2023-02-05T00:19:45.908Z,100.00
2023-02-05T00:22:13.472Z,100.00
2023-02-05T00:24:40.936Z,100.00
2023-02-05T00:27:10.207Z,100.00
2023-02-05T00:29:37.686Z,100.00
2023-02-05T00:32:05.252Z,100.00
2023-02-05T00:34:32.801Z,100.00
2023-02-05T00:37:00.272Z,100.00
2023-02-05T00:39:27.541Z,100.00
2023-02-05T00:41:54.709Z,100.00
2023-02-05T00:44:22.026Z,100.00
2023-02-05T00:46:49.315Z,100.00
2023-02-05T00:49:16.599Z,100.00
2023-02-05T00:51:44.112Z,100.00
2023-02-05T00:54:11.702Z,100.00
2023-02-05T00:56:39.281Z,100.00
2023-02-05T00:59:06.667Z,100.00
2023-02-05T01:01:34.466Z,100.00
2023-02-05T01:04:01.952Z,100.00
2023-02-05T01:06:29.391Z,100.00
2023-02-05T01:08:56.903Z,100.00
2023-02-05T01:11:24.435Z,100.00
2023-02-05T01:13:51.697Z,100.00
2023-02-05T01:16:19.220Z,100.00
2023-02-05T01:18:46.651Z,100.00
2023-02-05T01:21:14.286Z,100.00
2023-02-05T01:23:41.711Z,100.00
2023-02-05T01:26:09.289Z,100.00
2023-02-05T01:28:36.745Z,100.00
2023-02-05T01:31:04.456Z,100.00
2023-02-05T01:33:32.121Z,100.00
2023-02-05T01:35:59.604Z,100.00
2023-02-05T01:38:26.897Z,100.00
2023-02-05T01:40:54.269Z,100.00
2023-02-05T01:43:21.583Z,100.00
2023-02-05T01:45:57.824Z,100.00
2023-02-05T01:48:29.785Z,100.00
2023-02-05T01:51:01.303Z,100.00
2023-02-05T01:53:32.694Z,100.00
2023-02-05T01:56:03.577Z,100.00
2023-02-05T01:58:35.990Z,100.00
2023-02-05T02:01:03.602Z,100.00
2023-02-05T02:03:32.451Z,100.00
2023-02-05T02:06:00.491Z,100.00
2023-02-05T02:08:28.174Z,100.00
2023-02-05T02:10:58.380Z,100.00
2023-02-05T02:13:28.240Z,100.00
2023-02-05T02:15:57.081Z,100.00
2023-02-05T02:18:26.462Z,100.00
2023-02-05T02:21:31.654Z,100.00
2023-02-05T02:24:02.307Z,100.00
2023-02-05T02:26:40.864Z,100.00
2023-02-05T02:29:18.300Z,100.00
2023-02-05T02:31:58.902Z,100.00
2023-02-05T02:35:04.594Z,100.00
2023-02-05T02:37:48.159Z,100.00
2023-02-05T02:40:23.840Z,100.00
2023-02-05T02:43:22.009Z,100.00
2023-02-05T02:45:53.633Z,100.00
2023-02-05T02:48:25.398Z,100.00
2023-02-05T02:50:54.121Z,100.00
2023-02-05T02:53:26.840Z,100.00
2023-02-05T02:55:57.679Z,100.00
2023-02-05T02:58:40.478Z,100.00
2023-02-05T03:01:10.275Z,100.00
2023-02-05T03:03:44.758Z,100.00
2023-02-05T03:06:14.535Z,100.00
2023-02-05T03:09:04.676Z,100.00
2023-02-05T03:11:33.940Z,100.00
2023-02-05T03:14:01.794Z,100.00
2023-02-05T03:16:33.425Z,100.00
2023-02-05T03:19:02.973Z,100.00
2023-02-05T03:21:40.539Z,100.00
2023-02-05T03:24:08.509Z,100.00
2023-02-05T03:26:36.729Z,100.00
2023-02-05T03:29:33.305Z,100.00
2023-02-05T03:32:23.623Z,100.00
2023-02-05T03:35:13.275Z,100.00
2023-02-05T03:38:03.198Z,100.00
2023-02-05T03:40:48.211Z,100.00
2023-02-05T03:43:33.766Z,100.00
2023-02-05T03:46:02.046Z,100.00
2023-02-05T03:48:36.219Z,100.00
2023-02-05T03:51:22.812Z,100.00
2023-02-05T03:54:04.538Z,100.00
2023-02-05T03:56:55.559Z,100.00
2023-02-05T03:59:26.220Z,100.00
2023-02-05T04:01:55.048Z,100.00
2023-02-05T04:04:23.071Z,100.00
2023-02-05T04:06:53.545Z,100.00
2023-02-05T04:09:21.277Z,100.00
2023-02-05T04:11:48.948Z,100.00
2023-02-05T04:14:19.242Z,100.00
2023-02-05T04:16:46.788Z,100.00
2023-02-05T04:19:14.177Z,100.00
2023-02-05T04:21:41.720Z,100.00
2023-02-05T04:24:09.252Z,100.00
2023-02-05T04:26:36.920Z,100.00
2023-02-05T04:29:07.055Z,100.00
2023-02-05T04:31:41.430Z,100.00
2023-02-05T04:34:09.015Z,100.00
2023-02-05T04:36:38.692Z,100.00
2023-02-05T04:39:06.262Z,100.00
2023-02-05T04:41:33.543Z,100.00
2023-02-05T04:44:00.904Z,100.00
2023-02-05T04:46:28.315Z,100.00
2023-02-05T04:48:55.882Z,100.00
2023-02-05T04:51:23.352Z,100.00
2023-02-05T04:53:50.778Z,100.00
2023-02-05T04:56:18.590Z,100.00
2023-02-05T04:58:46.749Z,100.00
2023-02-05T05:01:17.091Z,100.00
2023-02-05T05:03:45.428Z,100.00
2023-02-05T05:06:13.634Z,100.00
2023-02-05T05:08:43.531Z,100.00
2023-02-05T05:11:17.688Z,100.00
2023-02-05T05:13:46.111Z,100.00
2023-02-05T05:16:13.768Z,100.00
2023-02-05T05:18:42.025Z,100.00
2023-02-05T05:21:10.381Z,100.00
2023-02-05T05:23:38.716Z,100.00
2023-02-05T05:26:11.953Z,100.00
2023-02-05T05:28:39.834Z,100.00
2023-02-05T05:31:09.645Z,100.00
2023-02-05T05:33:38.075Z,100.00
2023-02-05T05:36:06.913Z,100.00
2023-02-05T05:38:35.204Z,100.00
2023-02-05T05:41:21.071Z,100.00
2023-02-05T05:43:49.032Z,100.00
2023-02-05T05:46:23.015Z,100.00
2023-02-05T05:48:55.913Z,100.00
2023-02-05T05:51:25.378Z,100.00
2023-02-05T05:53:53.026Z,100.00
2023-02-05T05:56:21.629Z,100.00
2023-02-05T05:58:49.631Z,100.00
2023-02-05T06:01:19.255Z,100.00
2023-02-05T06:03:46.735Z,100.00
2023-02-05T06:06:14.284Z,100.00
2023-02-05T06:08:41.482Z,100.00
2023-02-05T06:11:08.990Z,100.00
2023-02-05T06:13:36.475Z,100.00
2023-02-05T06:16:04.722Z,100.00
2023-02-05T06:18:32.128Z,100.00
2023-02-05T06:20:59.814Z,100.00
2023-02-05T06:23:27.299Z,100.00
2023-02-05T06:25:54.775Z,100.00
2023-02-05T06:28:22.084Z,100.00
2023-02-05T06:30:49.649Z,100.00
2023-02-05T06:33:17.169Z,100.00
2023-02-05T06:35:44.604Z,100.00
2023-02-05T06:38:11.868Z,100.00
2023-02-05T06:40:39.146Z,100.00
2023-02-05T06:43:06.566Z,100.00
2023-02-05T06:45:34.177Z,100.00
2023-02-05T06:48:01.854Z,100.00
2023-02-05T06:50:29.330Z,100.00
2023-02-05T06:52:56.834Z,100.00
2023-02-05T06:55:24.486Z,100.00
2023-02-05T06:57:51.984Z,100.00
2023-02-05T07:00:19.654Z,100.00
2023-02-05T07:02:47.213Z,100.00
2023-02-05T07:05:14.867Z,100.00
2023-02-05T07:07:42.467Z,100.00
2023-02-05T07:10:10.244Z,100.00
2023-02-05T07:12:37.684Z,100.00
2023-02-05T07:15:05.470Z,100.00
2023-02-05T07:17:32.895Z,100.00
2023-02-05T07:20:00.395Z,100.00
2023-02-05T07:22:27.856Z,100.00
2023-02-05T07:24:55.575Z,100.00
2023-02-05T07:27:23.027Z,100.00
2023-02-05T07:29:50.541Z,100.00
2023-02-05T07:32:17.980Z,100.00
2023-02-05T07:34:45.552Z,100.00
2023-02-05T07:37:15.956Z,100.00
2023-02-05T07:39:43.465Z,100.00
2023-02-05T07:42:12.394Z,100.00
2023-02-05T07:44:48.714Z,100.00
2023-02-05T07:47:16.355Z,100.00
2023-02-05T07:49:43.718Z,100.00
2023-02-05T07:52:11.020Z,100.00
2023-02-05T07:54:38.428Z,100.00
2023-02-05T07:57:07.005Z,100.00
2023-02-05T07:59:34.692Z,100.00
2023-02-05T08:02:02.414Z,100.00
2023-02-05T08:04:30.182Z,100.00
2023-02-05T08:06:57.752Z,100.00
2023-02-05T08:09:25.165Z,100.00
2023-02-05T08:11:52.705Z,100.00
2023-02-05T08:14:20.166Z,100.00
2023-02-05T08:16:47.647Z,100.00
2023-02-05T08:19:16.047Z,100.00
2023-02-05T08:21:44.494Z,100.00
2023-02-05T08:24:12.152Z,100.00
2023-02-05T08:26:40.427Z,100.00
2023-02-05T08:29:08.542Z,100.00
2023-02-05T08:31:36.665Z,100.00
2023-02-05T08:34:05.172Z,100.00
2023-02-05T08:36:32.903Z,100.00
2023-02-05T08:39:00.219Z,100.00
2023-02-05T08:41:27.767Z,100.00
2023-02-05T08:43:55.219Z,100.00
2023-02-05T08:46:28.182Z,100.00
2023-02-05T08:48:59.307Z,100.00
2023-02-05T08:51:26.837Z,100.00
2023-02-05T08:53:55.834Z,100.00
2023-02-05T08:56:23.337Z,100.00
2023-02-05T08:58:50.810Z,100.00
2023-02-05T09:01:18.455Z,100.00
2023-02-05T09:03:46.361Z,100.00
2023-02-05T09:06:16.395Z,100.00
2023-02-05T09:08:43.963Z,100.00
2023-02-05T09:11:13.559Z,100.00
2023-02-05T09:13:41.336Z,100.00
2023-02-05T09:16:11.314Z,100.00
2023-02-05T09:18:39.337Z,100.00
2023-02-05T09:21:08.944Z,100.00
2023-02-05T09:23:37.705Z,100.00
2023-02-05T09:26:05.969Z,100.00
2023-02-05T09:28:33.443Z,100.00
2023-02-05T09:31:04.515Z,100.00
2023-02-05T09:33:32.112Z,100.00
2023-02-05T09:36:05.599Z,100.00
2023-02-05T09:38:33.380Z,100.00
2023-02-05T09:41:07.576Z,100.00
2023-02-05T09:43:44.134Z,100.00
2023-02-05T09:46:26.019Z,100.00
2023-02-05T09:49:02.562Z,100.00
2023-02-05T09:51:41.783Z,100.00
2023-02-05T09:54:18.472Z,100.00
2023-02-05T09:56:48.388Z,100.00
2023-02-05T09:59:19.740Z,100.00
2023-02-05T10:01:52.120Z,100.00
2023-02-05T10:04:19.992Z,100.00
2023-02-05T10:07:05.550Z,100.00
2023-02-05T10:09:48.186Z,100.00
2023-02-05T10:12:50.830Z,100.00
2023-02-05T10:15:45.789Z,100.00
2023-02-05T10:18:30.242Z,100.00
2023-02-05T10:21:22.561Z,100.00
2023-02-05T10:23:50.089Z,100.00
2023-02-05T10:26:20.778Z,100.00
2023-02-05T10:31:21.465Z,100.00
2023-02-05T10:33:58.762Z,100.00
2023-02-05T10:36:26.904Z,100.00
2023-02-05T10:38:56.875Z,100.00
2023-02-05T10:41:34.175Z,100.00
2023-02-05T10:44:12.499Z,100.00
2023-02-05T10:46:41.176Z,100.00
2023-02-05T10:49:12.694Z,100.00
2023-02-05T10:51:42.745Z,100.00
2023-02-05T10:54:32.068Z,100.00
2023-02-05T10:57:00.841Z,100.00
2023-02-05T10:59:31.231Z,100.00
2023-02-05T11:02:09.806Z,100.00
2023-02-05T11:04:52.132Z,100.00
2023-02-05T11:07:35.771Z,100.00
2023-02-05T11:10:26.828Z,100.00
2023-02-05T11:12:58.628Z,100.00
2023-02-05T11:15:28.612Z,100.00
2023-02-05T11:18:00.713Z,100.00
2023-02-05T11:20:38.942Z,100.00
2023-02-05T11:23:20.004Z,100.00
2023-02-05T11:25:59.493Z,100.00
2023-02-05T11:28:28.286Z,100.00
2023-02-05T11:30:57.341Z,100.00
2023-02-05T11:33:28.378Z,100.00
2023-02-05T11:36:05.190Z,99.91
2023-02-05T11:38:32.777Z,98.35
2023-02-05T11:41:04.501Z,96.55
2023-02-05T11:43:38.245Z,93.97
2023-02-05T11:46:10.032Z,95.02
2023-02-05T11:48:39.561Z,95.85
2023-02-05T11:51:09.614Z,97.75
2023-02-05T11:53:38.820Z,98.71
2023-02-05T11:56:12.229Z,100.00
2023-02-05T11:58:39.813Z,100.00
2023-02-05T12:01:24.035Z,99.42
2023-02-05T12:04:07.457Z,97.20
2023-02-05T12:06:42.631Z,94.31
2023-02-05T12:09:19.496Z,92.62
2023-02-05T12:12:04.314Z,90.87
2023-02-05T12:14:53.922Z,90.13
2023-02-05T12:17:39.934Z,88.29
2023-02-05T12:20:10.186Z,87.88
2023-02-05T12:23:07.856Z,88.43
2023-02-05T12:25:47.658Z,87.44
2023-02-05T12:28:37.280Z,86.91
2023-02-05T12:31:22.414Z,86.28
2023-02-05T12:34:01.554Z,85.61
2023-02-05T12:37:05.855Z,84.71
2023-02-05T12:39:43.329Z,83.51
2023-02-05T12:42:20.348Z,81.73
2023-02-05T12:45:07.807Z,81.79
2023-02-05T12:47:53.799Z,81.63
2023-02-05T12:50:35.999Z,82.05
2023-02-05T12:53:19.971Z,82.60
2023-02-05T12:55:56.503Z,83.91
2023-02-05T12:58:34.344Z,84.63
2023-02-05T13:01:08.948Z,85.98
2023-02-05T13:04:01.092Z,86.97
2023-02-05T13:06:43.937Z,88.50
2023-02-05T13:09:29.085Z,88.02
2023-02-05T13:12:02.224Z,87.62
2023-02-05T13:14:56.853Z,86.04
2023-02-05T13:17:28.394Z,85.95
2023-02-05T13:20:00.658Z,86.53
2023-02-05T13:23:27.346Z,84.40
2023-02-05T13:26:14.821Z,83.15
2023-02-05T13:28:47.706Z,82.18
2023-02-05T13:31:25.823Z,81.95
2023-02-05T13:33:56.634Z,80.11
2023-02-05T13:36:24.110Z,79.14
2023-02-05T13:39:03.589Z,78.01
2023-02-05T13:41:31.004Z,77.62
2023-02-05T13:44:16.331Z,77.87
2023-02-05T13:46:46.862Z,78.57
2023-02-05T13:49:58.893Z,78.10
2023-02-05T13:52:54.208Z,76.94
2023-02-05T13:55:53.122Z,77.91
2023-02-05T13:58:32.517Z,75.61
2023-02-05T14:01:02.592Z,74.40
2023-02-05T14:03:39.731Z,74.26
2023-02-05T14:06:27.113Z,75.08
2023-02-05T14:09:19.525Z,75.28
2023-02-05T14:12:03.333Z,76.07
2023-02-05T14:14:32.050Z,75.93
2023-02-05T14:17:00.917Z,75.85
2023-02-05T14:19:46.903Z,74.92
2023-02-05T14:22:40.150Z,72.79
2023-02-05T14:25:39.011Z,71.17
2023-02-05T14:28:19.093Z,69.54
2023-02-05T14:31:00.015Z,69.48
2023-02-05T14:33:30.467Z,66.56
2023-02-05T14:35:59.205Z,64.06
2023-02-05T14:38:33.349Z,62.42
2023-02-05T14:41:15.237Z,62.35
2023-02-05T14:43:46.675Z,62.70
2023-02-05T14:46:33.102Z,63.00
2023-02-05T14:49:03.750Z,63.76
2023-02-05T14:51:38.939Z,63.74
2023-02-05T14:54:23.345Z,64.46
2023-02-05T14:57:09.932Z,63.05
2023-02-05T15:00:03.012Z,62.95
2023-02-05T15:03:21.588Z,62.59
2023-02-05T15:06:00.031Z,63.15
2023-02-05T15:08:44.337Z,63.04
2023-02-05T15:11:15.915Z,63.30
2023-02-05T15:14:18.802Z,62.94
2023-02-05T15:17:14.094Z,63.24
2023-02-05T15:19:50.100Z,62.44
2023-02-05T15:22:35.515Z,62.91
2023-02-05T15:25:09.024Z,62.27
2023-02-05T15:27:47.366Z,62.81
2023-02-05T15:30:20.695Z,62.42
2023-02-05T15:32:59.203Z,62.28
2023-02-05T15:35:30.669Z,61.25
2023-02-05T15:38:10.041Z,61.75
2023-02-05T15:40:41.693Z,61.43
2023-02-05T15:43:38.401Z,62.92
2023-02-05T15:46:08.892Z,63.42
2023-02-05T15:48:39.842Z,63.37
2023-02-05T15:51:28.358Z,63.19
2023-02-05T15:53:58.222Z,63.35
2023-02-05T15:56:41.409Z,63.83
2023-02-05T15:59:17.490Z,64.98
2023-02-05T16:01:49.957Z,65.46
2023-02-05T16:04:27.745Z,65.27
2023-02-05T16:06:55.229Z,64.52
2023-02-05T16:09:25.097Z,63.05
2023-02-05T16:11:52.875Z,61.95
2023-02-05T16:14:23.042Z,60.62
2023-02-05T16:16:57.474Z,60.44
2023-02-05T16:19:30.546Z,59.32
2023-02-05T16:22:24.369Z,59.65
2023-02-05T16:24:57.725Z,59.45
2023-02-05T16:27:43.264Z,59.96
2023-02-05T16:30:19.922Z,60.10
2023-02-05T16:32:48.573Z,60.47
2023-02-05T16:35:27.678Z,60.68
2023-02-05T16:37:55.928Z,60.78
2023-02-05T16:40:37.071Z,61.52
2023-02-05T16:43:23.026Z,62.37
2023-02-05T16:46:08.904Z,63.61
2023-02-05T16:48:45.430Z,65.34
2023-02-05T16:51:45.158Z,66.96
2023-02-05T16:54:13.507Z,67.56
2023-02-05T16:57:07.553Z,67.88
2023-02-05T16:59:38.746Z,68.82
2023-02-05T17:02:06.557Z,70.56
2023-02-05T17:04:37.796Z,70.50
2023-02-05T17:07:17.444Z,70.35
2023-02-05T17:09:45.146Z,70.75
2023-02-05T17:12:38.739Z,70.71
2023-02-05T17:15:34.180Z,71.49
2023-02-05T17:18:24.584Z,71.55
2023-02-05T17:20:52.140Z,73.15
2023-02-05T17:23:19.560Z,72.57
2023-02-05T17:25:47.044Z,73.75
2023-02-05T17:28:16.589Z,73.56
2023-02-05T17:30:45.561Z,74.07
2023-02-05T17:33:17.678Z,74.36
2023-02-05T17:35:45.253Z,74.47
2023-02-05T17:38:12.749Z,74.86
2023-02-05T17:40:40.711Z,74.97
2023-02-05T17:43:08.223Z,75.23
2023-02-05T17:45:39.687Z,75.22
2023-02-05T17:48:08.427Z,75.76
2023-02-05T17:50:36.902Z,76.45
2023-02-05T17:53:04.901Z,76.46
2023-02-05T17:55:32.869Z,77.56
2023-02-05T17:58:00.369Z,78.11
2023-02-05T18:00:28.406Z,77.86
2023-02-05T18:02:55.781Z,78.76
2023-02-05T18:05:23.244Z,79.70
2023-02-05T18:07:56.940Z,80.43
2023-02-05T18:10:28.278Z,81.51
2023-02-05T18:12:56.284Z,81.16
2023-02-05T18:15:25.143Z,81.88
2023-02-05T18:17:53.555Z,81.93
2023-02-05T18:20:21.390Z,82.38
2023-02-05T18:22:49.446Z,83.49
2023-02-05T18:25:17.111Z,83.84
2023-02-05T18:27:44.984Z,84.04
2023-02-05T18:30:13.218Z,84.67
2023-02-05T18:32:41.008Z,85.64
2023-02-05T18:35:12.636Z,86.01
2023-02-05T18:37:44.181Z,87.48
2023-02-05T18:40:13.807Z,89.07
2023-02-05T18:42:41.726Z,89.48
2023-02-05T18:45:09.896Z,89.67
2023-02-05T18:47:37.338Z,90.85
2023-02-05T18:50:05.632Z,91.72
2023-02-05T18:52:35.745Z,92.33
2023-02-05T18:55:03.846Z,92.16
2023-02-05T18:57:31.236Z,93.07
2023-02-05T18:59:59.144Z,93.39
2023-02-05T19:02:26.548Z,95.20
2023-02-05T19:04:55.912Z,95.43
2023-02-05T19:07:24.914Z,94.74
2023-02-05T19:09:53.147Z,94.05
2023-02-05T19:12:20.580Z,93.09
2023-02-05T19:14:49.964Z,91.55
2023-02-05T19:17:17.438Z,93.50
2023-02-05T19:19:45.016Z,93.91
2023-02-05T19:22:12.354Z,93.98
2023-02-05T19:24:40.570Z,93.80
2023-02-05T19:27:08.033Z,94.65
2023-02-05T19:29:39.757Z,94.86
2023-02-05T19:32:08.313Z,95.38
2023-02-05T19:34:38.554Z,95.21
2023-02-05T19:37:06.290Z,96.70
2023-02-05T19:39:33.647Z,97.32
2023-02-05T19:42:01.013Z,97.17
2023-02-05T19:44:30.954Z,96.34
2023-02-05T19:46:58.506Z,97.52
2023-02-05T19:49:26.033Z,98.07
2023-02-05T19:51:55.353Z,98.86
2023-02-05T19:54:23.385Z,99.58
2023-02-05T19:56:51.605Z,99.67
2023-02-05T19:59:19.516Z,100.00
2023-02-05T20:01:47.735Z,100.00
2023-02-05T20:04:24.946Z,100.00
2023-02-05T20:06:56.209Z,100.00
2023-02-05T20:09:24.004Z,100.00
2023-02-05T20:11:53.648Z,100.00
2023-02-05T20:14:22.140Z,100.00
2023-02-05T20:16:50.230Z,100.00
2023-02-05T20:19:18.745Z,100.00
2023-02-05T20:21:47.130Z,100.00
2023-02-05T20:24:16.474Z,100.00
2023-02-05T20:26:47.871Z,100.00
2023-02-05T20:29:35.990Z,100.00
2023-02-05T20:32:04.081Z,100.00
2023-02-05T20:34:35.666Z,100.00
2023-02-05T20:37:06.919Z,100.00
2023-02-05T20:39:35.377Z,100.00
2023-02-05T20:42:03.296Z,100.00
2023-02-05T20:44:33.981Z,100.00
2023-02-05T20:47:02.955Z,100.00
2023-02-05T20:49:30.537Z,100.00
2023-02-05T20:51:58.160Z,100.00
2023-02-05T20:54:25.714Z,100.00
2023-02-05T20:56:59.905Z,100.00
2023-02-05T20:59:31.489Z,100.00
2023-02-05T21:01:59.462Z,100.00
2023-02-05T21:04:27.158Z,100.00
2023-02-05T21:06:55.091Z,100.00
2023-02-05T21:09:22.816Z,100.00
2023-02-05T21:11:55.355Z,100.00
2023-02-05T21:14:23.860Z,100.00
2023-02-05T21:16:51.535Z,100.00
2023-02-05T21:19:19.512Z,100.00
2023-02-05T21:21:47.041Z,100.00
2023-02-05T21:24:16.308Z,100.00
2023-02-05T21:26:46.320Z,100.00
2023-02-05T21:29:17.270Z,100.00
2023-02-05T21:31:50.100Z,100.00
2023-02-05T21:34:21.913Z,100.00
2023-02-05T21:36:50.951Z,100.00
2023-02-05T21:39:22.185Z,100.00
2023-02-05T21:41:54.322Z,100.00
2023-02-05T21:44:22.643Z,100.00
2023-02-05T21:46:50.258Z,100.00
2023-02-05T21:49:17.850Z,100.00
2023-02-05T21:51:45.157Z,100.00
2023-02-05T21:54:12.636Z,100.00
2023-02-05T21:56:41.361Z,100.00
2023-02-05T21:59:17.526Z,100.00
2023-02-05T22:01:45.248Z,100.00
2023-02-05T22:04:15.176Z,100.00
2023-02-05T22:06:44.332Z,100.00
2023-02-05T22:09:14.302Z,100.00
2023-02-05T22:11:42.466Z,100.00
2023-02-05T22:14:10.789Z,100.00
2023-02-05T22:16:38.540Z,100.00
2023-02-05T22:19:08.936Z,100.00
2023-02-05T22:21:39.531Z,100.00
2023-02-05T22:24:10.921Z,100.00
2023-02-05T22:26:39.619Z,100.00
2023-02-05T22:29:09.140Z,100.00
2023-02-05T22:31:37.034Z,100.00
2023-02-05T22:34:05.263Z,100.00
2023-02-05T22:36:34.757Z,100.00
2023-02-05T22:39:02.606Z,100.00
2023-02-05T22:41:46.881Z,100.00
2023-02-05T22:44:14.333Z,100.00
2023-02-05T22:46:42.716Z,100.00
2023-02-05T22:49:11.868Z,100.00
2023-02-05T22:51:40.505Z,100.00
2023-02-05T22:54:10.983Z,100.00
2023-02-05T22:56:38.940Z,100.00
2023-02-05T22:59:06.754Z,100.00
2023-02-05T23:01:36.071Z,100.00
2023-02-05T23:04:05.624Z,100.00
2023-02-05T23:06:36.159Z,100.00
2023-02-05T23:09:12.616Z,100.00
2023-02-05T23:11:40.464Z,100.00
2023-02-05T23:14:08.845Z,100.00
2023-02-05T23:16:39.755Z,100.00
2023-02-05T23:19:11.190Z,100.00
2023-02-05T23:21:40.569Z,100.00
2023-02-05T23:24:08.772Z,100.00
2023-02-05T23:26:41.910Z,100.00
2023-02-05T23:29:11.904Z,100.00
2023-02-05T23:31:39.446Z,100.00
2023-02-05T23:34:07.334Z,100.00
2023-02-05T23:36:34.828Z,100.00
2023-02-05T23:39:02.641Z,100.00
2023-02-05T23:41:36.358Z,100.00
2023-02-05T23:44:18.927Z,100.00
2023-02-05T23:46:48.255Z,100.00
2023-02-05T23:49:16.827Z,100.00
2023-02-05T23:51:44.411Z,100.00
2023-02-05T23:54:11.962Z,100.00
2023-02-05T23:56:40.077Z,100.00
2023-02-05T23:59:09.393Z,100.00
